| time (UTC) | temp F | wind direction | speed knots | gust knots | rain 1hr in | rain 24hr in | rain mn in | humidity % | barometer mb |
| 20260506044003 | 48 | 344 | 0.0 | 3.5 | 0.00 | 0.00 | 0.08 | 61 | 1249.2 |
| 20260506035502 | 50 | 330 | 1.7 | 7.8 | 0.00 | 0.00 | 0.08 | 56 | 1248.6 |
| 20260506034003 | 50 | 347 | 0.0 | 6.1 | 0.00 | 0.00 | 0.08 | 52 | 1248.6 |
| 20260506032503 | 51 | 314 | 5.2 | 7.0 | 0.00 | 0.00 | 0.08 | 50 | 1247.9 |
| 20260506025507 | 52 | 336 | 3.5 | 7.8 | 0.00 | 0.00 | 0.08 | 48 | 1247.5 |
| 20260506024004 | 52 | 347 | 0.0 | 7.8 | 0.00 | 0.00 | 0.08 | 48 | 1247.2 |
| 20260506022503 | 53 | 335 | 2.6 | 6.1 | 0.00 | 0.00 | 0.08 | 46 | 1247.2 |
| 20260506015508 | 55 | 315 | 2.6 | 10.4 | 0.00 | 0.00 | 0.08 | 43 | 1246.9 |
| 20260506014004 | 56 | 327 | 5.2 | 11.3 | 0.00 | 0.00 | 0.08 | 41 | 1246.5 |
| 20260506011505 | 56 | 337 | 3.5 | 9.6 | 0.00 | 0.00 | 0.08 | 40 | 1246.5 |
| 20260506010006 | 56 | 53 | 0.0 | 6.1 | 0.00 | 0.00 | 0.08 | 40 | 1246.5 |
| 20260506003504 | 56 | 349 | 0.0 | 10.4 | 0.00 | 0.00 | 0.08 | 39 | 1246.5 |
| 20260506002002 | 58 | 59 | 2.6 | 7.0 | 0.00 | 0.00 | 0.08 | 37 | 1246.2 |
| 20260506000503 | 57 | 50 | 0.9 | 1.7 | 0.00 | 0.00 | 0.08 | 38 | 1246.5 |
| 20260505235003 | 57 | 205 | 3.5 | 5.2 | 0.00 | 0.00 | 0.08 | 41 | 1246.2 |
| 20260505233504 | 59 | 36 | 0.0 | 7.8 | 0.00 | 0.00 | 0.08 | 37 | 1245.9 |
| 20260505232003 | 58 | 290 | 5.2 | 8.7 | 0.00 | 0.00 | 0.08 | 41 | 1246.2 |
| 20260505225003 | 59 | 207 | 5.2 | 6.1 | 0.00 | 0.00 | 0.08 | 41 | 1246.5 |
| 20260505223503 | 59 | 199 | 2.6 | 7.0 | 0.00 | 0.00 | 0.08 | 42 | 1246.5 |
| 20260505222003 | 58 | 356 | 5.2 | 5.2 | 0.00 | 0.00 | 0.08 | 49 | 1246.9 |
| 20260505215005 | 57 | 34 | 0.0 | 5.2 | 0.00 | 0.00 | 0.08 | 53 | 1246.9 |
| 20260505213502 | 59 | 304 | 0.0 | 5.2 | 0.00 | 0.00 | 0.08 | 52 | 1247.5 |
| 20260505212002 | 58 | 322 | 3.5 | 12.2 | 0.00 | 0.00 | 0.08 | 49 | 1247.5 |
| 20260505210502 | 56 | 328 | 5.2 | 12.2 | 0.00 | 0.00 | 0.08 | 54 | 1248.2 |
| 20260505203502 | 53 | 304 | 10.4 | 11.3 | 0.00 | 0.00 | 0.08 | 60 | 1248.6 |
| 20260505202003 | 54 | 332 | 0.0 | 2.6 | 0.00 | 0.00 | 0.08 | 63 | 1248.6 |
| 20260505200503 | 54 | 296 | 5.2 | 10.4 | 0.00 | 0.00 | 0.08 | 63 | 1248.9 |
| 20260505195003 | 54 | 308 | 7.8 | 8.7 | 0.00 | 0.00 | 0.08 | 63 | 1248.9 |
| 20260505193503 | 53 | 321 | 7.0 | 9.6 | 0.00 | 0.00 | 0.08 | 69 | 1248.9 |
| 20260505192502 | 53 | 319 | 9.6 | 13.0 | 0.00 | 0.00 | 0.08 | 63 | 1248.9 |
| 20260505191003 | 52 | 331 | 0.0 | 3.5 | 0.00 | 0.00 | 0.08 | 75 | 1249.2 |
| 20260505185503 | 50 | 324 | 5.2 | 8.7 | 0.00 | 0.00 | 0.08 | 77 | 1249.6 |
| 20260505184004 | 50 | 0 | 0.0 | 10.4 | 0.00 | 0.00 | 0.08 | 77 | 1249.9 |
| 20260505183002 | 50 | 321 | 2.6 | 7.8 | 0.00 | 0.00 | 0.08 | 79 | 1249.6 |
| 20260505181503 | 49 | 314 | 5.2 | 13.0 | 0.00 | 0.00 | 0.08 | 80 | 1249.9 |
| 20260505180003 | 48 | 320 | 2.6 | 6.1 | 0.00 | 0.00 | 0.08 | 86 | 1249.9 |
| 20260505173003 | 46 | 323 | 0.0 | 8.7 | 0.00 | 0.00 | 0.08 | 91 | 1249.6 |
| 20260505171502 | 46 | 29 | 0.0 | 9.6 | 0.00 | 0.00 | 0.08 | 92 | 1249.6 |
| 20260505164502 | 45 | 353 | 0.0 | 7.0 | 0.01 | 0.00 | 0.08 | 94 | 1249.2 |
| 20260505163003 | 45 | 57 | 0.0 | 0.0 | 0.02 | 0.00 | 0.08 | 94 | 1249.2 |
| 20260505161503 | 45 | 15 | 0.0 | 0.0 | 0.02 | 0.00 | 0.08 | 95 | 1249.2 |
| 20260505153003 | 44 | 352 | 0.0 | 0.0 | 0.01 | 0.00 | 0.06 | 94 | 1249.2 |
| 20260505151503 | 44 | 23 | 0.0 | 0.0 | 0.02 | 0.00 | 0.06 | 95 | 1248.9 |
| 20260505150503 | 44 | 6 | 0.0 | 0.0 | 0.02 | 0.00 | 0.06 | 94 | 1249.2 |
| 20260505125003 | 41 | 2 | 0.0 | 0.9 | 0.02 | 0.00 | 0.04 | 93 | 1249.2 |
| 20260505121003 | 42 | 322 | 0.0 | 0.9 | 0.02 | 0.00 | 0.02 | 93 | 1249.9 |
| 20260505115503 | 43 | 338 | 0.0 | 8.7 | 0.02 | 0.00 | 0.02 | 92 | 1249.9 |
| 20260505114003 | 44 | 297 | 0.0 | 9.6 | 0.00 | 0.00 | 0.00 | 92 | 1250.3 |
| 20260505101003 | 46 | 332 | 0.0 | 0.0 | 0.00 | 0.00 | 0.00 | 82 | 1249.6 |
| 20260505095503 | 46 | 319 | 0.0 | 0.0 | 0.00 | 0.00 | 0.00 | 83 | 1249.9 |
| 20260505094003 | 46 | 27 | 0.0 | 0.0 | 0.00 | 0.00 | 0.00 | 83 | 1249.2 |
| 20260505093002 | 46 | 347 | 0.0 | 0.0 | 0.00 | 0.00 | 0.00 | 84 | 1249.2 |
| 20260505091503 | 45 | 340 | 0.0 | 0.0 | 0.00 | 0.00 | 0.00 | 85 | 1249.6 |
| 20260505090002 | 45 | 14 | 0.0 | 0.0 | 0.00 | 0.00 | 0.00 | 83 | 1249.6 |
| 20260505081503 | 46 | 335 | 0.0 | 0.0 | 0.00 | 0.00 | 0.00 | 82 | 1250.3 |
| 20260505071503 | 46 | 341 | 0.0 | 0.0 | 0.00 | 0.00 | 0.00 | 79 | 1250.3 |
| 20260505070003 | 46 | 353 | 0.0 | 0.0 | 0.00 | 0.00 | 0.00 | 79 | 1250.6 |
| 20260505063003 | 47 | 349 | 0.0 | 0.0 | 0.00 | 0.00 | 0.00 | 76 | 1250.6 |
| 20260505061503 | 48 | 347 | 0.0 | 0.0 | 0.00 | 0.00 | 0.00 | 75 | 1249.9 |
| 20260505060004 | 48 | 8 | 0.0 | 0.0 | 0.00 | 0.00 | 0.00 | 74 | 1250.3 |
| 20260505055503 | 48 | 7 | 0.0 | 0.9 | 0.00 | 0.00 | 0.00 | 74 | 1250.3 |
| 20260505054003 | 48 | 1 | 0.0 | 0.0 | 0.00 | 0.00 | 0.00 | 72 | 1250.9 |
| 20260505052003 | 49 | 320 | 0.0 | 0.0 | 0.00 | 0.00 | 0.00 | 70 | 1251.6 |
| 20260505050503 | 49 | 6 | 0.0 | 0.9 | 0.00 | 0.00 | 0.00 | 70 | 1251.6 |